sensor_id;sensor_type;location;lat;lon;timestamp;P1;durP1;ratioP1;P2;durP2;ratioP2
54999;SDS011;40897;47.998;18.856;2024-02-04T00:00:00;3.3;;;3.3;;
54999;SDS011;40897;47.998;18.856;2024-02-04T00:05:00;3.3;;;3.3;;
54999;SDS011;40897;47.998;18.856;2024-02-04T00:10:00;2.5;;;2.5;;
54999;SDS011;40897;47.998;18.856;2024-02-04T00:15:00;2.9;;;2.9;;
54999;SDS011;40897;47.998;18.856;2024-02-04T00:20:00;3.1;;;3.1;;
54999;SDS011;40897;47.998;18.856;2024-02-04T00:25:00;2.7;;;2.7;;
54999;SDS011;40897;47.998;18.856;2024-02-04T00:30:00;2.4;;;2.4;;
54999;SDS011;40897;47.998;18.856;2024-02-04T00:35:00;2.5;;;2.5;;
54999;SDS011;40897;47.998;18.856;2024-02-04T00:40:00;2.5;;;2.5;;
54999;SDS011;40897;47.998;18.856;2024-02-04T00:45:00;2.6;;;2.6;;
54999;SDS011;40897;47.998;18.856;2024-02-04T00:50:00;2.7;;;2.6;;
54999;SDS011;40897;47.998;18.856;2024-02-04T00:55:00;5.1;;;5.1;;
54999;SDS011;40897;47.998;18.856;2024-02-04T01:00:00;3.5;;;3.5;;
54999;SDS011;40897;47.998;18.856;2024-02-04T01:05:00;2.7;;;2.7;;
54999;SDS011;40897;47.998;18.856;2024-02-04T01:10:00;2.4;;;2.4;;
54999;SDS011;40897;47.998;18.856;2024-02-04T01:15:00;2.2;;;2.2;;
54999;SDS011;40897;47.998;18.856;2024-02-04T01:20:00;2.6;;;2.6;;
54999;SDS011;40897;47.998;18.856;2024-02-04T01:25:00;2.7;;;2.7;;
54999;SDS011;40897;47.998;18.856;2024-02-04T01:30:00;4.0;;;4.0;;
54999;SDS011;40897;47.998;18.856;2024-02-04T01:35:02;2.7;;;2.7;;
54999;SDS011;40897;47.998;18.856;2024-02-04T01:40:00;2.4;;;2.4;;
54999;SDS011;40897;47.998;18.856;2024-02-04T01:45:00;2.4;;;2.4;;
54999;SDS011;40897;47.998;18.856;2024-02-04T01:50:00;2.2;;;2.2;;
54999;SDS011;40897;47.998;18.856;2024-02-04T01:55:00;2.0;;;2.0;;
54999;SDS011;40897;47.998;18.856;2024-02-04T02:00:00;2.3;;;2.3;;
54999;SDS011;40897;47.998;18.856;2024-02-04T02:05:00;2.7;;;2.7;;
54999;SDS011;40897;47.998;18.856;2024-02-04T02:10:00;2.3;;;2.3;;
54999;SDS011;40897;47.998;18.856;2024-02-04T02:15:01;2.5;;;2.5;;
54999;SDS011;40897;47.998;18.856;2024-02-04T02:20:09;2.9;;;2.9;;
54999;SDS011;40897;47.998;18.856;2024-02-04T02:25:00;2.5;;;2.5;;
54999;SDS011;40897;47.998;18.856;2024-02-04T02:30:00;2.7;;;2.7;;
54999;SDS011;40897;47.998;18.856;2024-02-04T02:35:00;2.6;;;2.6;;
54999;SDS011;40897;47.998;18.856;2024-02-04T02:40:02;2.8;;;2.8;;
54999;SDS011;40897;47.998;18.856;2024-02-04T02:45:00;2.0;;;2.0;;
54999;SDS011;40897;47.998;18.856;2024-02-04T02:50:00;2.4;;;2.4;;
54999;SDS011;40897;47.998;18.856;2024-02-04T02:55:00;3.3;;;3.3;;
54999;SDS011;40897;47.998;18.856;2024-02-04T03:00:00;3.3;;;3.3;;
54999;SDS011;40897;47.998;18.856;2024-02-04T03:05:00;3.0;;;3.0;;
54999;SDS011;40897;47.998;18.856;2024-02-04T03:10:00;3.5;;;3.5;;
54999;SDS011;40897;47.998;18.856;2024-02-04T03:15:00;3.9;;;3.9;;
54999;SDS011;40897;47.998;18.856;2024-02-04T03:20:00;3.7;;;3.7;;
54999;SDS011;40897;47.998;18.856;2024-02-04T03:25:00;3.9;;;3.9;;
54999;SDS011;40897;47.998;18.856;2024-02-04T03:30:00;4.8;;;4.8;;
54999;SDS011;40897;47.998;18.856;2024-02-04T03:35:00;4.5;;;4.5;;
54999;SDS011;40897;47.998;18.856;2024-02-04T03:40:00;3.9;;;3.9;;
54999;SDS011;40897;47.998;18.856;2024-02-04T03:45:00;4.0;;;4.0;;
54999;SDS011;40897;47.998;18.856;2024-02-04T03:50:00;3.6;;;3.6;;
54999;SDS011;40897;47.998;18.856;2024-02-04T03:55:00;4.4;;;4.4;;
54999;SDS011;40897;47.998;18.856;2024-02-04T04:00:00;3.8;;;3.8;;
54999;SDS011;40897;47.998;18.856;2024-02-04T04:05:00;4.0;;;4.0;;
54999;SDS011;40897;47.998;18.856;2024-02-04T04:10:00;3.6;;;3.6;;
54999;SDS011;40897;47.998;18.856;2024-02-04T04:15:00;4.0;;;4.0;;
54999;SDS011;40897;47.998;18.856;2024-02-04T04:20:00;4.4;;;4.4;;
54999;SDS011;40897;47.998;18.856;2024-02-04T04:25:00;5.5;;;5.5;;
54999;SDS011;40897;47.998;18.856;2024-02-04T04:30:00;4.9;;;4.9;;
54999;SDS011;40897;47.998;18.856;2024-02-04T04:35:00;4.9;;;4.9;;
54999;SDS011;40897;47.998;18.856;2024-02-04T04:40:00;4.7;;;4.7;;
54999;SDS011;40897;47.998;18.856;2024-02-04T04:45:00;4.7;;;4.7;;
54999;SDS011;40897;47.998;18.856;2024-02-04T04:50:00;6.0;;;6.0;;
54999;SDS011;40897;47.998;18.856;2024-02-04T04:55:00;5.6;;;5.6;;
54999;SDS011;40897;47.998;18.856;2024-02-04T05:00:00;6.2;;;6.2;;
54999;SDS011;40897;47.998;18.856;2024-02-04T05:05:00;6.1;;;6.1;;
54999;SDS011;40897;47.998;18.856;2024-02-04T05:10:00;5.8;;;5.8;;
54999;SDS011;40897;47.998;18.856;2024-02-04T05:15:00;6.5;;;6.5;;
54999;SDS011;40897;47.998;18.856;2024-02-04T05:20:00;7.2;;;7.2;;
54999;SDS011;40897;47.998;18.856;2024-02-04T05:25:00;6.9;;;6.9;;
54999;SDS011;40897;47.998;18.856;2024-02-04T05:30:01;7.7;;;7.5;;
54999;SDS011;40897;47.998;18.856;2024-02-04T05:35:00;7.2;;;7.2;;
54999;SDS011;40897;47.998;18.856;2024-02-04T05:40:00;6.8;;;6.8;;
54999;SDS011;40897;47.998;18.856;2024-02-04T05:45:00;7.7;;;7.7;;
54999;SDS011;40897;47.998;18.856;2024-02-04T05:50:00;7.2;;;7.2;;
54999;SDS011;40897;47.998;18.856;2024-02-04T05:55:00;7.4;;;7.4;;
54999;SDS011;40897;47.998;18.856;2024-02-04T06:00:00;7.1;;;7.1;;
54999;SDS011;40897;47.998;18.856;2024-02-04T06:05:00;8.0;;;8.0;;
54999;SDS011;40897;47.998;18.856;2024-02-04T06:10:00;7.4;;;7.4;;
54999;SDS011;40897;47.998;18.856;2024-02-04T06:15:00;8.2;;;8.2;;
54999;SDS011;40897;47.998;18.856;2024-02-04T06:20:00;6.8;;;6.8;;
54999;SDS011;40897;47.998;18.856;2024-02-04T06:25:00;7.2;;;7.2;;
54999;SDS011;40897;47.998;18.856;2024-02-04T06:30:00;7.3;;;7.3;;
54999;SDS011;40897;47.998;18.856;2024-02-04T06:35:00;7.0;;;7.0;;
54999;SDS011;40897;47.998;18.856;2024-02-04T06:40:00;6.2;;;6.2;;
54999;SDS011;40897;47.998;18.856;2024-02-04T06:45:00;7.0;;;7.0;;
54999;SDS011;40897;47.998;18.856;2024-02-04T06:50:00;6.4;;;6.4;;
54999;SDS011;40897;47.998;18.856;2024-02-04T06:55:00;7.1;;;7.1;;
54999;SDS011;40897;47.998;18.856;2024-02-04T07:00:00;6.3;;;6.3;;
54999;SDS011;40897;47.998;18.856;2024-02-04T07:05:00;6.3;;;6.3;;
54999;SDS011;40897;47.998;18.856;2024-02-04T07:10:00;6.5;;;6.5;;
54999;SDS011;40897;47.998;18.856;2024-02-04T07:15:00;6.2;;;6.2;;
54999;SDS011;40897;47.998;18.856;2024-02-04T07:20:01;5.6;;;5.6;;
54999;SDS011;40897;47.998;18.856;2024-02-04T07:25:01;5.6;;;5.6;;
54999;SDS011;40897;47.998;18.856;2024-02-04T07:30:00;6.1;;;6.1;;
54999;SDS011;40897;47.998;18.856;2024-02-04T07:35:00;5.9;;;5.9;;
54999;SDS011;40897;47.998;18.856;2024-02-04T07:40:02;5.7;;;5.7;;
54999;SDS011;40897;47.998;18.856;2024-02-04T07:45:00;5.7;;;5.7;;
54999;SDS011;40897;47.998;18.856;2024-02-04T07:50:00;5.4;;;5.4;;
54999;SDS011;40897;47.998;18.856;2024-02-04T07:55:00;6.2;;;6.2;;
54999;SDS011;40897;47.998;18.856;2024-02-04T08:00:00;5.7;;;5.7;;
54999;SDS011;40897;47.998;18.856;2024-02-04T08:05:00;6.2;;;6.2;;
54999;SDS011;40897;47.998;18.856;2024-02-04T08:10:00;5.8;;;5.8;;
54999;SDS011;40897;47.998;18.856;2024-02-04T08:15:00;5.6;;;5.6;;
54999;SDS011;40897;47.998;18.856;2024-02-04T08:20:00;23.5;;;19.7;;
54999;SDS011;40897;47.998;18.856;2024-02-04T08:25:00;49.7;;;37.5;;
54999;SDS011;40897;47.998;18.856;2024-02-04T08:30:00;6.0;;;5.9;;
54999;SDS011;40897;47.998;18.856;2024-02-04T08:35:00;5.7;;;5.7;;
54999;SDS011;40897;47.998;18.856;2024-02-04T08:40:01;9.1;;;9.1;;
54999;SDS011;40897;47.998;18.856;2024-02-04T08:45:00;5.8;;;5.8;;
54999;SDS011;40897;47.998;18.856;2024-02-04T08:50:00;5.8;;;5.8;;
54999;SDS011;40897;47.998;18.856;2024-02-04T08:55:00;8.6;;;8.6;;
54999;SDS011;40897;47.998;18.856;2024-02-04T09:00:00;5.0;;;5.0;;
54999;SDS011;40897;47.998;18.856;2024-02-04T09:05:00;5.7;;;5.6;;
54999;SDS011;40897;47.998;18.856;2024-02-04T09:10:00;4.3;;;4.3;;
54999;SDS011;40897;47.998;18.856;2024-02-04T09:15:00;11.9;;;11.6;;
54999;SDS011;40897;47.998;18.856;2024-02-04T09:20:00;46.0;;;45.1;;
54999;SDS011;40897;47.998;18.856;2024-02-04T09:25:00;13.0;;;11.1;;
54999;SDS011;40897;47.998;18.856;2024-02-04T09:30:00;49.0;;;34.6;;
54999;SDS011;40897;47.998;18.856;2024-02-04T09:35:00;30.6;;;22.0;;
54999;SDS011;40897;47.998;18.856;2024-02-04T09:40:00;54.8;;;36.4;;
54999;SDS011;40897;47.998;18.856;2024-02-04T09:45:00;37.6;;;25.9;;
54999;SDS011;40897;47.998;18.856;2024-02-04T09:50:00;36.9;;;25.6;;
54999;SDS011;40897;47.998;18.856;2024-02-04T09:55:00;22.3;;;15.8;;
54999;SDS011;40897;47.998;18.856;2024-02-04T10:00:02;61.9;;;40.4;;
54999;SDS011;40897;47.998;18.856;2024-02-04T10:05:00;64.1;;;46.2;;
54999;SDS011;40897;47.998;18.856;2024-02-04T10:10:00;32.1;;;21.6;;
54999;SDS011;40897;47.998;18.856;2024-02-04T10:15:00;19.4;;;13.6;;
54999;SDS011;40897;47.998;18.856;2024-02-04T10:20:00;42.9;;;29.5;;
54999;SDS011;40897;47.998;18.856;2024-02-04T10:25:08;27.5;;;19.1;;
54999;SDS011;40897;47.998;18.856;2024-02-04T10:30:00;39.0;;;26.4;;
54999;SDS011;40897;47.998;18.856;2024-02-04T10:35:00;20.1;;;13.6;;
54999;SDS011;40897;47.998;18.856;2024-02-04T10:40:00;6.0;;;4.5;;
54999;SDS011;40897;47.998;18.856;2024-02-04T10:45:00;52.1;;;33.8;;
54999;SDS011;40897;47.998;18.856;2024-02-04T10:50:00;25.2;;;17.1;;
54999;SDS011;40897;47.998;18.856;2024-02-04T10:55:00;41.8;;;27.1;;
54999;SDS011;40897;47.998;18.856;2024-02-04T11:00:00;29.0;;;19.1;;
54999;SDS011;40897;47.998;18.856;2024-02-04T11:05:00;50.3;;;33.1;;
54999;SDS011;40897;47.998;18.856;2024-02-04T11:10:00;16.8;;;11.6;;
54999;SDS011;40897;47.998;18.856;2024-02-04T11:15:01;21.9;;;14.7;;
54999;SDS011;40897;47.998;18.856;2024-02-04T11:30:00;27.5;;;18.0;;
54999;SDS011;40897;47.998;18.856;2024-02-04T11:35:00;32.0;;;20.3;;
54999;SDS011;40897;47.998;18.856;2024-02-04T11:40:00;57.0;;;36.5;;
54999;SDS011;40897;47.998;18.856;2024-02-04T11:45:08;35.6;;;22.8;;
54999;SDS011;40897;47.998;18.856;2024-02-04T11:50:00;27.0;;;17.5;;
54999;SDS011;40897;47.998;18.856;2024-02-04T11:55:00;17.6;;;11.9;;
54999;SDS011;40897;47.998;18.856;2024-02-04T12:00:00;49.7;;;34.9;;
54999;SDS011;40897;47.998;18.856;2024-02-04T12:05:00;13.3;;;9.6;;
54999;SDS011;40897;47.998;18.856;2024-02-04T12:10:00;9.0;;;6.7;;
54999;SDS011;40897;47.998;18.856;2024-02-04T12:15:00;14.6;;;11.5;;
54999;SDS011;40897;47.998;18.856;2024-02-04T12:20:00;5.7;;;4.7;;
54999;SDS011;40897;47.998;18.856;2024-02-04T12:25:00;15.8;;;13.2;;
54999;SDS011;40897;47.998;18.856;2024-02-04T12:30:00;11.3;;;9.8;;
54999;SDS011;40897;47.998;18.856;2024-02-04T12:35:00;11.1;;;9.0;;
54999;SDS011;40897;47.998;18.856;2024-02-04T12:40:00;26.0;;;19.8;;
54999;SDS011;40897;47.998;18.856;2024-02-04T12:45:00;26.6;;;18.0;;
54999;SDS011;40897;47.998;18.856;2024-02-04T12:50:00;99.1;;;62.6;;
54999;SDS011;40897;47.998;18.856;2024-02-04T12:55:00;100.9;;;64.0;;
54999;SDS011;40897;47.998;18.856;2024-02-04T13:00:03;87.9;;;55.3;;
54999;SDS011;40897;47.998;18.856;2024-02-04T13:05:00;12.0;;;8.2;;
54999;SDS011;40897;47.998;18.856;2024-02-04T13:10:00;10.7;;;7.5;;
54999;SDS011;40897;47.998;18.856;2024-02-04T13:15:00;44.2;;;28.4;;
54999;SDS011;40897;47.998;18.856;2024-02-04T13:20:00;58.5;;;37.7;;
54999;SDS011;40897;47.998;18.856;2024-02-04T13:25:00;18.6;;;12.6;;
54999;SDS011;40897;47.998;18.856;2024-02-04T13:30:00;20.9;;;15.1;;
54999;SDS011;40897;47.998;18.856;2024-02-04T13:35:00;5.0;;;4.1;;
54999;SDS011;40897;47.998;18.856;2024-02-04T13:40:00;7.4;;;5.8;;
54999;SDS011;40897;47.998;18.856;2024-02-04T13:45:02;12.3;;;10.1;;
54999;SDS011;40897;47.998;18.856;2024-02-04T13:50:00;8.4;;;7.2;;
54999;SDS011;40897;47.998;18.856;2024-02-04T13:55:00;4.0;;;3.5;;
54999;SDS011;40897;47.998;18.856;2024-02-04T14:00:00;7.3;;;6.4;;
54999;SDS011;40897;47.998;18.856;2024-02-04T14:05:00;6.3;;;5.7;;
54999;SDS011;40897;47.998;18.856;2024-02-04T14:10:00;6.9;;;6.4;;
54999;SDS011;40897;47.998;18.856;2024-02-04T14:15:00;6.8;;;6.4;;
54999;SDS011;40897;47.998;18.856;2024-02-04T14:20:00;2.7;;;2.6;;
54999;SDS011;40897;47.998;18.856;2024-02-04T14:25:00;7.0;;;6.7;;
54999;SDS011;40897;47.998;18.856;2024-02-04T14:30:00;4.6;;;4.2;;
54999;SDS011;40897;47.998;18.856;2024-02-04T14:35:00;2.7;;;2.6;;
54999;SDS011;40897;47.998;18.856;2024-02-04T14:40:00;5.2;;;4.8;;
54999;SDS011;40897;47.998;18.856;2024-02-04T14:45:00;5.9;;;5.2;;
54999;SDS011;40897;47.998;18.856;2024-02-04T14:50:00;4.0;;;3.7;;
54999;SDS011;40897;47.998;18.856;2024-02-04T14:55:00;3.7;;;3.3;;
54999;SDS011;40897;47.998;18.856;2024-02-04T15:00:00;14.5;;;12.0;;
54999;SDS011;40897;47.998;18.856;2024-02-04T15:05:00;4.9;;;4.1;;
54999;SDS011;40897;47.998;18.856;2024-02-04T15:10:00;4.9;;;4.1;;
54999;SDS011;40897;47.998;18.856;2024-02-04T15:15:00;5.6;;;4.7;;
54999;SDS011;40897;47.998;18.856;2024-02-04T15:20:00;3.6;;;3.2;;
54999;SDS011;40897;47.998;18.856;2024-02-04T15:25:00;6.0;;;4.8;;
54999;SDS011;40897;47.998;18.856;2024-02-04T15:30:00;3.5;;;3.2;;
54999;SDS011;40897;47.998;18.856;2024-02-04T15:35:00;12.4;;;9.5;;
54999;SDS011;40897;47.998;18.856;2024-02-04T15:40:00;9.6;;;7.4;;
54999;SDS011;40897;47.998;18.856;2024-02-04T15:45:00;9.3;;;7.4;;
54999;SDS011;40897;47.998;18.856;2024-02-04T15:50:00;6.3;;;4.9;;
54999;SDS011;40897;47.998;18.856;2024-02-04T15:55:00;8.3;;;6.6;;
54999;SDS011;40897;47.998;18.856;2024-02-04T16:00:00;31.3;;;23.0;;
54999;SDS011;40897;47.998;18.856;2024-02-04T16:05:00;33.7;;;22.3;;
54999;SDS011;40897;47.998;18.856;2024-02-04T16:10:00;23.6;;;16.5;;
54999;SDS011;40897;47.998;18.856;2024-02-04T16:15:00;18.4;;;14.0;;
54999;SDS011;40897;47.998;18.856;2024-02-04T16:20:00;12.5;;;10.6;;
54999;SDS011;40897;47.998;18.856;2024-02-04T16:25:00;23.6;;;18.1;;
54999;SDS011;40897;47.998;18.856;2024-02-04T16:30:00;8.3;;;6.5;;
54999;SDS011;40897;47.998;18.856;2024-02-04T16:35:00;10.1;;;7.6;;
54999;SDS011;40897;47.998;18.856;2024-02-04T16:40:00;5.9;;;4.6;;
54999;SDS011;40897;47.998;18.856;2024-02-04T16:45:02;12.5;;;9.7;;
54999;SDS011;40897;47.998;18.856;2024-02-04T16:50:00;22.5;;;16.0;;
54999;SDS011;40897;47.998;18.856;2024-02-04T16:55:00;11.4;;;7.9;;
54999;SDS011;40897;47.998;18.856;2024-02-04T17:00:00;20.7;;;14.9;;
54999;SDS011;40897;47.998;18.856;2024-02-04T17:05:00;24.9;;;17.8;;
54999;SDS011;40897;47.998;18.856;2024-02-04T17:10:00;13.9;;;10.3;;
54999;SDS011;40897;47.998;18.856;2024-02-04T17:15:00;38.3;;;26.3;;
54999;SDS011;40897;47.998;18.856;2024-02-04T17:20:08;9.1;;;7.2;;
54999;SDS011;40897;47.998;18.856;2024-02-04T17:25:03;12.0;;;10.7;;
54999;SDS011;40897;47.998;18.856;2024-02-04T17:30:00;8.9;;;8.2;;
54999;SDS011;40897;47.998;18.856;2024-02-04T17:35:00;8.3;;;8.0;;
54999;SDS011;40897;47.998;18.856;2024-02-04T17:40:00;3.7;;;3.7;;
54999;SDS011;40897;47.998;18.856;2024-02-04T17:45:00;3.7;;;3.7;;
54999;SDS011;40897;47.998;18.856;2024-02-04T17:50:00;4.2;;;4.2;;
54999;SDS011;40897;47.998;18.856;2024-02-04T17:55:00;4.2;;;4.2;;
54999;SDS011;40897;47.998;18.856;2024-02-04T18:00:00;3.3;;;3.3;;
54999;SDS011;40897;47.998;18.856;2024-02-04T18:05:00;2.9;;;2.9;;
54999;SDS011;40897;47.998;18.856;2024-02-04T18:10:00;3.1;;;3.1;;
54999;SDS011;40897;47.998;18.856;2024-02-04T18:15:00;3.0;;;3.0;;
54999;SDS011;40897;47.998;18.856;2024-02-04T18:20:00;3.4;;;3.4;;
54999;SDS011;40897;47.998;18.856;2024-02-04T18:25:00;4.1;;;4.1;;
54999;SDS011;40897;47.998;18.856;2024-02-04T18:30:00;3.4;;;3.4;;
54999;SDS011;40897;47.998;18.856;2024-02-04T18:35:00;2.4;;;2.4;;
54999;SDS011;40897;47.998;18.856;2024-02-04T18:40:00;2.7;;;2.7;;
54999;SDS011;40897;47.998;18.856;2024-02-04T18:45:00;2.7;;;2.7;;
54999;SDS011;40897;47.998;18.856;2024-02-04T18:50:00;2.6;;;2.6;;
54999;SDS011;40897;47.998;18.856;2024-02-04T18:55:00;2.9;;;2.9;;
54999;SDS011;40897;47.998;18.856;2024-02-04T19:00:00;2.4;;;2.4;;
54999;SDS011;40897;47.998;18.856;2024-02-04T19:05:00;2.7;;;2.7;;
54999;SDS011;40897;47.998;18.856;2024-02-04T19:10:00;2.7;;;2.7;;
54999;SDS011;40897;47.998;18.856;2024-02-04T19:15:00;2.7;;;2.7;;
54999;SDS011;40897;47.998;18.856;2024-02-04T19:20:00;3.2;;;3.2;;
54999;SDS011;40897;47.998;18.856;2024-02-04T19:25:01;2.7;;;2.7;;
54999;SDS011;40897;47.998;18.856;2024-02-04T19:30:00;2.7;;;2.7;;
54999;SDS011;40897;47.998;18.856;2024-02-04T19:35:00;3.0;;;3.0;;
54999;SDS011;40897;47.998;18.856;2024-02-04T19:40:00;2.9;;;2.9;;
54999;SDS011;40897;47.998;18.856;2024-02-04T19:45:00;3.0;;;3.0;;
54999;SDS011;40897;47.998;18.856;2024-02-04T19:50:00;2.8;;;2.8;;
54999;SDS011;40897;47.998;18.856;2024-02-04T19:55:03;3.8;;;3.8;;
54999;SDS011;40897;47.998;18.856;2024-02-04T20:00:00;2.5;;;2.5;;
54999;SDS011;40897;47.998;18.856;2024-02-04T20:05:00;3.0;;;3.0;;
54999;SDS011;40897;47.998;18.856;2024-02-04T20:10:00;3.3;;;3.3;;
54999;SDS011;40897;47.998;18.856;2024-02-04T20:15:00;3.5;;;3.5;;
54999;SDS011;40897;47.998;18.856;2024-02-04T20:20:00;2.3;;;2.3;;
54999;SDS011;40897;47.998;18.856;2024-02-04T20:25:00;3.3;;;3.3;;
54999;SDS011;40897;47.998;18.856;2024-02-04T20:30:00;2.5;;;2.5;;
54999;SDS011;40897;47.998;18.856;2024-02-04T20:35:00;2.7;;;2.7;;
54999;SDS011;40897;47.998;18.856;2024-02-04T20:40:00;2.9;;;2.9;;
54999;SDS011;40897;47.998;18.856;2024-02-04T20:45:00;3.2;;;3.2;;
54999;SDS011;40897;47.998;18.856;2024-02-04T20:50:00;2.8;;;2.8;;
54999;SDS011;40897;47.998;18.856;2024-02-04T20:55:00;2.7;;;2.7;;
54999;SDS011;40897;47.998;18.856;2024-02-04T21:00:00;2.1;;;2.1;;
54999;SDS011;40897;47.998;18.856;2024-02-04T21:05:00;1.8;;;1.8;;
54999;SDS011;40897;47.998;18.856;2024-02-04T21:10:00;1.9;;;1.9;;
54999;SDS011;40897;47.998;18.856;2024-02-04T21:15:00;2.0;;;2.0;;
54999;SDS011;40897;47.998;18.856;2024-02-04T21:20:00;2.3;;;2.3;;
54999;SDS011;40897;47.998;18.856;2024-02-04T21:25:00;2.1;;;2.1;;
54999;SDS011;40897;47.998;18.856;2024-02-04T21:30:00;1.9;;;1.9;;
54999;SDS011;40897;47.998;18.856;2024-02-04T21:35:00;2.2;;;2.2;;
54999;SDS011;40897;47.998;18.856;2024-02-04T21:40:00;2.1;;;2.1;;
54999;SDS011;40897;47.998;18.856;2024-02-04T21:45:00;1.4;;;1.4;;
54999;SDS011;40897;47.998;18.856;2024-02-04T21:50:00;1.6;;;1.6;;
54999;SDS011;40897;47.998;18.856;2024-02-04T21:55:00;1.5;;;1.5;;
54999;SDS011;40897;47.998;18.856;2024-02-04T22:00:00;1.4;;;1.4;;
54999;SDS011;40897;47.998;18.856;2024-02-04T22:05:00;1.3;;;1.3;;
54999;SDS011;40897;47.998;18.856;2024-02-04T22:10:00;1.1;;;1.1;;
54999;SDS011;40897;47.998;18.856;2024-02-04T22:15:00;1.2;;;1.2;;
54999;SDS011;40897;47.998;18.856;2024-02-04T22:20:00;1.3;;;1.3;;
54999;SDS011;40897;47.998;18.856;2024-02-04T22:25:00;1.6;;;1.6;;
54999;SDS011;40897;47.998;18.856;2024-02-04T22:30:00;1.1;;;1.1;;
54999;SDS011;40897;47.998;18.856;2024-02-04T22:35:00;1.7;;;1.7;;
54999;SDS011;40897;47.998;18.856;2024-02-04T22:40:00;1.1;;;1.1;;
54999;SDS011;40897;47.998;18.856;2024-02-04T22:45:00;1.3;;;1.3;;
54999;SDS011;40897;47.998;18.856;2024-02-04T22:50:00;1.3;;;1.3;;
54999;SDS011;40897;47.998;18.856;2024-02-04T22:55:00;1.6;;;1.6;;
54999;SDS011;40897;47.998;18.856;2024-02-04T23:00:00;1.3;;;1.3;;
54999;SDS011;40897;47.998;18.856;2024-02-04T23:05:00;1.4;;;1.4;;
54999;SDS011;40897;47.998;18.856;2024-02-04T23:10:00;1.7;;;1.7;;
54999;SDS011;40897;47.998;18.856;2024-02-04T23:15:00;1.7;;;1.7;;
54999;SDS011;40897;47.998;18.856;2024-02-04T23:20:00;1.7;;;1.7;;
54999;SDS011;40897;47.998;18.856;2024-02-04T23:25:00;1.4;;;1.4;;
54999;SDS011;40897;47.998;18.856;2024-02-04T23:30:00;1.7;;;1.7;;
54999;SDS011;40897;47.998;18.856;2024-02-04T23:35:00;1.6;;;1.6;;
54999;SDS011;40897;47.998;18.856;2024-02-04T23:40:00;2.0;;;2.0;;
54999;SDS011;40897;47.998;18.856;2024-02-04T23:45:00;2.2;;;2.2;;
54999;SDS011;40897;47.998;18.856;2024-02-04T23:50:00;1.8;;;1.8;;
54999;SDS011;40897;47.998;18.856;2024-02-04T23:55:00;1.8;;;1.8;;
